createdAt,value
2019-05-29T00:00:22.174Z,96858.55
2019-05-29T00:02:51.543Z,96863.60
2019-05-29T00:05:20.944Z,96867.03
2019-05-29T00:07:50.402Z,96862.73
2019-05-29T00:10:19.899Z,96864.13
2019-05-29T00:12:49.283Z,96865.24
2019-05-29T00:15:18.792Z,96862.91
2019-05-29T00:17:48.182Z,96869.91
2019-05-29T00:20:18.646Z,96872.36
2019-05-29T00:22:48.195Z,96875.52
2019-05-29T00:25:18.777Z,96873.03
2019-05-29T00:27:48.380Z,96885.87
2019-05-29T00:30:18.085Z,96880.39
2019-05-29T00:32:47.426Z,96885.58
2019-05-29T00:35:16.977Z,96879.05
2019-05-29T00:37:46.316Z,96883.70
2019-05-29T00:40:17.148Z,96889.13
2019-05-29T00:42:46.571Z,96888.49
2019-05-29T00:45:17.591Z,96884.91
2019-05-29T00:47:47.034Z,96892.66
2019-05-29T00:50:16.647Z,96890.38
2019-05-29T00:52:46.026Z,96895.69
2019-05-29T00:55:16.755Z,96891.84
2019-05-29T00:57:46.234Z,96893.48
2019-05-29T01:00:17.467Z,96886.08
2019-05-29T01:02:47.081Z,96898.47
2019-05-29T01:05:18.063Z,96895.97
2019-05-29T01:07:47.588Z,96900.44
2019-05-29T01:10:17.195Z,96903.94
2019-05-29T01:12:46.572Z,96903.41
2019-05-29T01:15:17.424Z,96907.45
2019-05-29T01:17:46.950Z,96916.89
2019-05-29T01:20:18.130Z,96910.88
2019-05-29T01:22:47.461Z,96918.07
2019-05-29T01:25:17.299Z,96914.75
2019-05-29T01:27:47.999Z,96919.48
2019-05-29T01:30:17.721Z,96924.69
2019-05-29T01:32:47.212Z,96926.77
2019-05-29T01:35:17.845Z,96924.89
2019-05-29T01:37:47.408Z,96929.13
2019-05-29T01:40:22.958Z,96928.23
2019-05-29T01:42:50.110Z,96928.82
2019-05-29T01:45:19.615Z,96932.56
2019-05-29T01:47:49.177Z,96940.84
2019-05-29T01:50:19.637Z,96942.83
2019-05-29T01:52:49.215Z,96929.19
2019-05-29T01:55:19.783Z,96937.80
2019-05-29T01:57:49.357Z,96942.53
2019-05-29T02:00:20.139Z,96949.36
2019-05-29T02:02:49.727Z,96943.90
2019-05-29T02:05:20.036Z,96950.67
2019-05-29T02:07:49.601Z,96957.23
2019-05-29T02:10:20.221Z,96954.89
2019-05-29T02:12:49.960Z,96963.10
2019-05-29T02:15:25.967Z,96963.66
2019-05-29T02:17:50.750Z,96960.17
2019-05-29T02:20:21.186Z,96968.20
2019-05-29T02:22:50.751Z,96978.41
2019-05-29T02:25:22.482Z,96975.30
2019-05-29T02:27:52.090Z,96978.06
2019-05-29T02:30:23.621Z,96975.85
2019-05-29T02:32:52.953Z,96981.91
2019-05-29T02:35:24.504Z,96982.47
2019-05-29T02:37:53.793Z,96987.83
2019-05-29T02:40:25.610Z,96990.71
2019-05-29T02:42:54.667Z,96989.91
2019-05-29T02:45:44.895Z,96993.16
2019-05-29T02:47:55.533Z,96992.72
2019-05-29T02:50:26.471Z,96993.33
2019-05-29T02:52:56.272Z,96995.53
2019-05-29T02:55:26.914Z,97005.73
2019-05-29T02:57:57.012Z,97002.12
2019-05-29T03:00:51.349Z,97007.00
2019-05-29T03:03:21.723Z,97010.94
2019-05-29T03:05:51.779Z,97018.34
2019-05-29T03:08:22.281Z,97013.36
2019-05-29T03:10:52.102Z,97016.92
2019-05-29T03:13:23.144Z,97021.37
2019-05-29T03:16:08.335Z,97020.69
2019-05-29T03:18:25.688Z,97025.70
2019-05-29T03:20:55.224Z,97029.28
2019-05-29T03:23:26.434Z,97036.34
2019-05-29T03:25:56.150Z,97038.34
2019-05-29T03:28:25.823Z,97038.27
2019-05-29T03:30:55.394Z,97047.03
2019-05-29T03:33:30.461Z,97045.92
2019-05-29T03:35:56.176Z,97050.33
2019-05-29T03:38:26.098Z,97047.55
2019-05-29T03:40:55.782Z,97055.53
2019-05-29T03:43:26.151Z,97067.55
2019-05-29T03:45:55.895Z,97061.45
2019-05-29T03:48:25.956Z,97073.64
2019-05-29T03:50:55.902Z,97068.75
2019-05-29T03:53:26.906Z,97077.70
2019-05-29T03:55:56.706Z,97076.63
2019-05-29T03:58:26.525Z,97082.92
2019-05-29T04:00:56.066Z,97083.81
2019-05-29T04:03:26.934Z,97080.83
2019-05-29T04:05:56.593Z,97087.80
2019-05-29T04:08:27.425Z,97091.58
2019-05-29T04:10:57.661Z,97095.98
2019-05-29T04:13:27.587Z,97099.13
2019-05-29T04:15:58.161Z,97106.34
2019-05-29T04:18:29.728Z,97104.03
2019-05-29T04:20:59.688Z,97104.83
2019-05-29T04:23:34.119Z,97109.47
2019-05-29T04:26:03.922Z,97109.34
2019-05-29T04:28:34.769Z,97107.86
2019-05-29T04:31:05.069Z,97116.55
2019-05-29T04:33:35.332Z,97117.45
2019-05-29T04:36:05.821Z,97124.38
2019-05-29T04:38:36.218Z,97132.12
2019-05-29T04:41:06.675Z,97128.88
2019-05-29T04:43:37.573Z,97141.64
2019-05-29T04:46:07.478Z,97139.67
2019-05-29T04:48:38.342Z,97144.91
2019-05-29T04:51:08.367Z,97141.58
2019-05-29T04:53:39.717Z,97154.48
2019-05-29T04:56:09.277Z,97153.23
2019-05-29T04:58:39.111Z,97152.41
2019-05-29T05:01:08.769Z,97155.63
2019-05-29T05:03:39.393Z,97160.19
2019-05-29T05:06:09.125Z,97164.29
2019-05-29T05:08:39.681Z,97169.47
2019-05-29T05:11:10.714Z,97170.05
2019-05-29T05:13:40.501Z,97178.38
2019-05-29T05:16:10.066Z,97182.82
2019-05-29T05:18:40.240Z,97175.95
2019-05-29T05:21:10.082Z,97186.36
2019-05-29T05:23:40.506Z,97191.91
2019-05-29T05:26:10.427Z,97193.23
2019-05-29T05:28:44.087Z,97194.66
2019-05-29T05:31:11.280Z,97195.70
2019-05-29T05:33:41.097Z,97198.56
2019-05-29T05:36:10.791Z,97197.29
2019-05-29T05:38:41.138Z,97208.39
2019-05-29T05:41:10.807Z,97207.22
2019-05-29T05:43:41.339Z,97219.81
2019-05-29T05:46:11.326Z,97219.59
2019-05-29T05:48:41.683Z,97221.53
2019-05-29T05:51:11.343Z,97221.84
2019-05-29T05:53:41.737Z,97224.80
2019-05-29T05:56:11.531Z,97226.02
2019-05-29T05:58:42.218Z,97228.55
2019-05-29T06:01:12.265Z,97224.69
2019-05-29T06:03:42.539Z,97231.36
2019-05-29T06:06:12.372Z,97232.63
2019-05-29T06:08:42.448Z,97238.09
2019-05-29T06:11:12.313Z,97239.05
2019-05-29T06:13:42.798Z,97239.84
2019-05-29T06:16:12.522Z,97244.94
2019-05-29T06:18:43.050Z,97244.50
2019-05-29T06:21:13.006Z,97248.73
2019-05-29T06:23:43.450Z,97251.98
2019-05-29T06:26:13.882Z,97251.13
2019-05-29T06:28:43.802Z,97252.64
2019-05-29T06:31:13.440Z,97256.98
2019-05-29T06:33:43.908Z,97254.24
2019-05-29T06:36:14.032Z,97262.13
2019-05-29T06:38:44.253Z,97262.16
2019-05-29T06:41:14.343Z,97253.42
2019-05-29T06:43:44.359Z,97261.45
2019-05-29T06:46:14.485Z,97266.77
2019-05-29T06:48:56.267Z,97266.32
2019-05-29T06:51:15.592Z,97264.86
2019-05-29T06:53:45.321Z,97268.22
2019-05-29T06:56:16.014Z,97277.19
2019-05-29T06:58:46.121Z,97276.20
2019-05-29T07:01:15.703Z,97278.52
2019-05-29T07:03:45.264Z,97285.85
2019-05-29T07:06:14.866Z,97280.23
2019-05-29T07:08:48.066Z,97299.33
2019-05-29T07:11:15.982Z,97300.68
2019-05-29T07:13:48.352Z,97303.50
2019-05-29T07:16:16.722Z,97318.34
2019-05-29T07:19:22.983Z,97319.55
2019-05-29T07:21:17.511Z,97318.90
2019-05-29T07:23:48.791Z,97325.23
2019-05-29T07:26:18.333Z,97323.22
2019-05-29T07:29:06.639Z,97328.89
2019-05-29T07:31:19.119Z,97336.88
2019-05-29T07:33:48.749Z,97337.55
2019-05-29T07:36:18.369Z,97340.53
2019-05-29T07:39:00.419Z,97342.53
2019-05-29T07:41:19.281Z,97346.01
2019-05-29T07:43:48.784Z,97352.98
2019-05-29T07:46:18.582Z,97353.98
2019-05-29T07:48:50.240Z,97356.81
2019-05-29T07:51:19.379Z,97357.16
2019-05-29T07:53:49.070Z,97358.46
2019-05-29T07:56:23.040Z,97361.11
2019-05-29T07:59:02.614Z,97370.77
2019-05-29T08:01:25.353Z,97364.43
2019-05-29T08:03:54.906Z,97372.42
2019-05-29T08:06:24.376Z,97370.77
2019-05-29T08:08:53.866Z,97369.63
2019-05-29T08:11:23.254Z,97373.45
2019-05-29T08:13:52.593Z,97372.14
2019-05-29T08:16:22.031Z,97374.98
2019-05-29T08:18:52.992Z,97372.53
2019-05-29T08:21:22.726Z,97376.20
2019-05-29T08:23:52.127Z,97374.21
2019-05-29T08:26:23.529Z,97377.52
2019-05-29T08:28:53.968Z,97378.36
2019-05-29T08:31:23.377Z,97375.70
2019-05-29T08:33:58.779Z,97379.69
2019-05-29T08:36:29.238Z,97385.16
2019-05-29T08:38:59.687Z,97382.50
2019-05-29T08:41:29.126Z,97383.34
2019-05-29T08:43:58.526Z,97385.84
2019-05-29T08:46:27.941Z,97389.17
2019-05-29T08:48:57.302Z,97392.16
2019-05-29T08:51:26.692Z,97395.98
2019-05-29T08:53:56.122Z,97401.30
2019-05-29T08:56:25.598Z,97405.14
2019-05-29T08:58:55.011Z,97403.31
2019-05-29T09:01:24.481Z,97411.13
2019-05-29T09:03:53.967Z,97414.45
2019-05-29T09:06:23.443Z,97411.13
2019-05-29T09:08:55.001Z,97407.47
2019-05-29T09:11:24.223Z,97409.48
2019-05-29T09:13:53.691Z,97401.67
2019-05-29T09:16:23.286Z,97403.02
2019-05-29T09:18:52.623Z,97400.20
2019-05-29T09:21:22.897Z,97407.03
2019-05-29T09:23:53.089Z,97405.36
2019-05-29T09:26:25.512Z,97413.19
2019-05-29T09:28:53.577Z,97407.74
2019-05-29T09:31:23.930Z,97418.06
2019-05-29T09:33:53.280Z,97410.92
2019-05-29T09:36:22.870Z,97418.07
2019-05-29T09:38:52.499Z,97413.09
2019-05-29T09:41:23.593Z,97420.22
2019-05-29T09:43:58.790Z,97412.41
2019-05-29T09:46:24.242Z,97417.91
2019-05-29T09:48:54.084Z,97418.24
2019-05-29T09:51:23.465Z,97414.92
2019-05-29T09:53:54.505Z,97420.08
2019-05-29T09:56:24.061Z,97425.58
2019-05-29T09:58:55.222Z,97423.59
2019-05-29T10:01:25.612Z,97425.42
2019-05-29T10:03:57.607Z,97429.25
2019-05-29T10:06:26.593Z,97419.77
2019-05-29T10:08:56.728Z,97428.09
2019-05-29T10:11:27.285Z,97427.77
2019-05-29T10:13:57.350Z,97435.92
2019-05-29T10:16:28.014Z,97425.11
2019-05-29T10:18:59.519Z,97424.98
2019-05-29T10:21:39.408Z,97426.81
2019-05-29T10:23:59.694Z,97430.48
2019-05-29T10:26:29.084Z,97432.64
2019-05-29T10:29:07.981Z,97435.30
2019-05-29T10:31:29.694Z,97436.47
2019-05-29T10:33:59.042Z,97437.80
2019-05-29T10:36:28.467Z,97443.46
2019-05-29T10:38:57.888Z,97440.63
2019-05-29T10:41:27.268Z,97444.96
2019-05-29T10:43:56.726Z,97437.64
2019-05-29T10:46:26.085Z,97435.16
2019-05-29T10:48:56.663Z,97439.65
2019-05-29T10:51:26.182Z,97435.16
2019-05-29T10:53:58.342Z,97437.66
2019-05-29T10:56:26.654Z,97435.48
2019-05-29T10:58:59.749Z,97430.16
2019-05-29T11:01:27.268Z,97438.98
2019-05-29T11:03:56.662Z,97434.33
2019-05-29T11:06:26.045Z,97436.66
2019-05-29T11:08:56.258Z,97440.81
2019-05-29T11:11:25.743Z,97449.14
2019-05-29T11:13:55.320Z,97445.97
2019-05-29T11:16:24.600Z,97445.14
2019-05-29T11:18:55.231Z,97445.97
2019-05-29T11:21:24.689Z,97448.14
2019-05-29T11:23:54.045Z,97451.63
2019-05-29T11:26:23.426Z,97459.95
2019-05-29T11:28:52.961Z,97453.30
2019-05-29T11:31:22.413Z,97457.63
2019-05-29T11:33:53.078Z,97471.44
2019-05-29T11:36:22.662Z,97467.95
2019-05-29T11:38:52.583Z,97468.94
2019-05-29T11:41:26.460Z,97475.10
2019-05-29T11:43:54.634Z,97489.58
2019-05-29T11:46:24.317Z,97493.23
2019-05-29T11:48:55.124Z,97498.56
2019-05-29T11:51:24.636Z,97499.06
2019-05-29T11:53:55.321Z,97504.88
2019-05-29T11:56:24.752Z,97505.88
2019-05-29T11:58:54.796Z,97505.05
2019-05-29T12:01:24.569Z,97506.54
2019-05-29T12:04:24.247Z,97499.39
2019-05-29T12:06:25.063Z,97508.03
2019-05-29T12:08:55.776Z,97504.88
2019-05-29T12:11:25.265Z,97501.37
2019-05-29T12:13:56.107Z,97503.55
2019-05-29T12:16:25.559Z,97510.88
2019-05-29T12:18:55.663Z,97510.53
2019-05-29T12:21:25.266Z,97515.53
2019-05-29T12:23:55.022Z,97517.53
2019-05-29T12:26:25.418Z,97517.04
2019-05-29T12:29:02.047Z,97529.19
2019-05-29T12:31:26.999Z,97523.20
2019-05-29T12:34:00.139Z,97524.87
2019-05-29T12:36:27.558Z,97528.54
2019-05-29T12:38:57.810Z,97532.70
2019-05-29T12:41:27.577Z,97521.89
2019-05-29T12:43:57.474Z,97530.22
2019-05-29T12:46:26.994Z,97523.73
2019-05-29T12:48:57.547Z,97532.69
2019-05-29T12:51:27.022Z,97537.85
2019-05-29T12:53:56.429Z,97534.36
2019-05-29T12:56:25.790Z,97541.69
2019-05-29T12:58:56.061Z,97542.20
2019-05-29T13:01:25.508Z,97545.36
2019-05-29T13:03:56.506Z,97549.86
2019-05-29T13:06:26.201Z,97551.03
2019-05-29T13:08:56.344Z,97548.70
2019-05-29T13:11:25.708Z,97547.88
2019-05-29T13:13:56.211Z,97541.55
2019-05-29T13:16:27.295Z,97538.72
2019-05-29T13:18:56.973Z,97544.22
2019-05-29T13:21:26.429Z,97545.22
2019-05-29T13:23:59.269Z,97544.58
2019-05-29T13:26:26.971Z,97540.25
2019-05-29T13:28:57.543Z,97544.58
2019-05-29T13:31:26.984Z,97550.58
2019-05-29T13:33:57.546Z,97540.24
2019-05-29T13:36:27.182Z,97544.24
2019-05-29T13:38:56.567Z,97547.91
2019-05-29T13:41:26.021Z,97543.08
2019-05-29T13:43:56.436Z,97545.87
2019-05-29T13:46:27.177Z,97545.36
2019-05-29T13:48:56.820Z,97542.03
2019-05-29T13:51:26.134Z,97540.01
2019-05-29T13:54:03.823Z,97544.33
2019-05-29T13:56:26.714Z,97555.17
2019-05-29T13:58:56.082Z,97558.84
2019-05-29T14:01:25.567Z,97556.17
2019-05-29T14:03:54.920Z,97558.83
2019-05-29T14:06:24.293Z,97557.81
2019-05-29T14:08:53.664Z,97556.48
2019-05-29T14:11:23.098Z,97553.63
2019-05-29T14:13:53.711Z,97563.64
2019-05-29T14:16:23.101Z,97568.50
2019-05-29T14:18:52.545Z,97568.68
2019-05-29T14:21:22.023Z,97569.51
2019-05-29T14:23:51.512Z,97569.84
2019-05-29T14:26:20.983Z,97571.52
2019-05-29T14:28:50.460Z,97579.19
2019-05-29T14:31:19.935Z,97575.85
2019-05-29T14:33:49.805Z,97576.34
2019-05-29T14:36:19.221Z,97581.85
2019-05-29T14:38:48.655Z,97581.67
2019-05-29T14:41:18.086Z,97575.34
2019-05-29T14:43:47.885Z,97579.67
2019-05-29T14:46:17.353Z,97583.68
2019-05-29T14:48:46.755Z,97583.84
2019-05-29T14:51:19.360Z,97583.17
2019-05-29T14:53:48.742Z,97584.66
2019-05-29T14:56:18.276Z,97586.50
2019-05-29T14:58:47.630Z,97588.84
2019-05-29T15:01:16.987Z,97599.02
2019-05-29T15:03:46.381Z,97595.18
2019-05-29T15:06:15.856Z,97592.83
2019-05-29T15:08:45.308Z,97595.98
2019-05-29T15:11:14.758Z,97599.50
2019-05-29T15:13:47.276Z,97597.00
2019-05-29T15:16:16.738Z,97595.83
2019-05-29T15:18:46.077Z,97593.50
2019-05-29T15:21:15.746Z,97605.32
2019-05-29T15:23:45.543Z,97606.83
2019-05-29T15:26:22.905Z,97604.81
2019-05-29T15:28:52.425Z,97608.63
2019-05-29T15:31:21.785Z,97612.76
2019-05-29T15:33:51.151Z,97622.16
2019-05-29T15:36:20.547Z,97622.50
2019-05-29T15:38:49.926Z,97624.69
2019-05-29T15:41:19.303Z,97626.52
2019-05-29T15:43:49.487Z,97626.52
2019-05-29T15:46:19.042Z,97634.18
2019-05-29T15:48:48.512Z,97631.50
2019-05-29T15:51:21.657Z,97639.85
2019-05-29T15:53:49.125Z,97635.88
2019-05-29T15:56:27.853Z,97642.36
2019-05-29T15:58:56.546Z,97638.87
2019-05-29T16:01:26.014Z,97642.03
2019-05-29T16:03:55.600Z,97648.04
2019-05-29T16:06:25.087Z,97641.20
2019-05-29T16:08:54.472Z,97644.36
2019-05-29T16:11:25.474Z,97648.88
2019-05-29T16:13:55.255Z,97657.23
2019-05-29T16:16:24.642Z,97659.89
2019-05-29T16:18:54.203Z,97652.55
2019-05-29T16:21:23.661Z,97656.56
2019-05-29T16:23:53.123Z,97656.73
2019-05-29T16:26:22.511Z,97659.53
2019-05-29T16:28:51.918Z,97665.38
2019-05-29T16:31:21.276Z,97666.71
2019-05-29T16:33:50.729Z,97669.05
2019-05-29T16:36:20.324Z,97667.22
2019-05-29T16:38:49.740Z,97665.88
2019-05-29T16:41:19.858Z,97672.72
2019-05-29T16:43:49.603Z,97669.22
2019-05-29T16:46:21.102Z,97679.73
2019-05-29T16:48:50.144Z,97676.89
2019-05-29T16:51:20.896Z,97686.23
2019-05-29T16:53:50.494Z,97688.56
2019-05-29T16:56:23.350Z,97690.39
2019-05-29T16:58:53.358Z,97694.39
2019-05-29T17:01:23.977Z,97698.06
2019-05-29T17:03:53.516Z,97697.05
2019-05-29T17:06:24.178Z,97702.22
2019-05-29T17:08:53.795Z,97706.91
2019-05-29T17:11:25.050Z,97706.22
2019-05-29T17:13:54.713Z,97699.89
2019-05-29T17:16:24.825Z,97708.55
2019-05-29T17:18:54.557Z,97708.88
2019-05-29T17:21:24.965Z,97712.21
2019-05-29T17:23:54.374Z,97715.37
2019-05-29T17:26:24.990Z,97709.87
2019-05-29T17:28:54.496Z,97715.03
2019-05-29T17:31:24.958Z,97721.85
2019-05-29T17:33:54.509Z,97721.84
2019-05-29T17:36:29.099Z,97721.28
2019-05-29T17:38:58.201Z,97727.61
2019-05-29T17:41:27.655Z,97730.77
2019-05-29T17:43:57.096Z,97735.59
2019-05-29T17:46:26.491Z,97732.41
2019-05-29T17:48:55.926Z,97732.73
2019-05-29T17:51:26.057Z,97735.20
2019-05-29T17:53:55.819Z,97742.86
2019-05-29T17:56:35.591Z,97745.19
2019-05-29T17:58:56.364Z,97746.84
2019-05-29T18:01:26.341Z,97753.33
2019-05-29T18:03:56.818Z,97748.66
2019-05-29T18:06:26.437Z,97747.81
2019-05-29T18:08:55.805Z,97756.33
2019-05-29T18:11:25.319Z,97755.16
2019-05-29T18:13:54.711Z,97757.64
2019-05-29T18:16:31.256Z,97759.31
2019-05-29T18:19:00.599Z,97765.47
2019-05-29T18:21:30.130Z,97771.80
2019-05-29T18:23:59.526Z,97768.61
2019-05-29T18:26:45.958Z,97770.27
2019-05-29T18:29:00.166Z,97771.60
2019-05-29T18:31:29.581Z,97779.75
2019-05-29T18:33:59.058Z,97782.91
2019-05-29T18:36:29.686Z,97778.58
2019-05-29T18:38:59.095Z,97780.72
2019-05-29T18:41:28.612Z,97780.88
2019-05-29T18:43:58.023Z,97785.84
2019-05-29T18:46:27.489Z,97779.83
2019-05-29T18:48:56.843Z,97785.66
2019-05-29T18:51:26.598Z,97800.45
2019-05-29T18:53:56.084Z,97796.93
2019-05-29T18:56:26.457Z,97795.41
2019-05-29T18:58:58.222Z,97799.38
2019-05-29T19:01:27.686Z,97806.69
2019-05-29T19:03:57.193Z,97805.36
2019-05-29T19:06:27.655Z,97814.15
2019-05-29T19:08:57.078Z,97819.78
2019-05-29T19:11:29.978Z,97817.89
2019-05-29T19:14:03.072Z,97820.02
2019-05-29T19:16:32.606Z,97819.99
2019-05-29T19:19:01.944Z,97828.47
2019-05-29T19:21:32.562Z,97837.41
2019-05-29T19:24:02.207Z,97833.76
2019-05-29T19:26:36.280Z,97845.39
2019-05-29T19:29:02.763Z,97849.69
2019-05-29T19:31:33.341Z,97851.48
2019-05-29T19:34:02.805Z,97846.77
2019-05-29T19:36:32.244Z,97855.28
2019-05-29T19:39:01.650Z,97865.58
2019-05-29T19:41:32.066Z,97874.85
2019-05-29T19:44:03.160Z,97874.01
2019-05-29T19:46:37.389Z,97884.84
2019-05-29T19:49:03.756Z,97882.48
2019-05-29T19:51:33.532Z,97884.80
2019-05-29T19:54:03.073Z,97889.28
2019-05-29T19:56:32.543Z,97897.22
2019-05-29T19:59:01.907Z,97900.03
2019-05-29T20:01:36.990Z,97904.66
2019-05-29T20:04:02.412Z,97906.14
2019-05-29T20:06:32.795Z,97915.95
2019-05-29T20:09:02.516Z,97906.94
2019-05-29T20:11:31.883Z,97906.39
2019-05-29T20:14:01.236Z,97916.20
2019-05-29T20:16:30.605Z,97911.17
2019-05-29T20:19:00.009Z,97919.16
2019-05-29T20:21:30.562Z,97915.16
2019-05-29T20:23:59.905Z,97922.80
2019-05-29T20:26:29.449Z,97924.28
2019-05-29T20:28:59.072Z,97928.75
2019-05-29T20:31:30.316Z,97930.73
2019-05-29T20:33:59.984Z,97927.37
2019-05-29T20:36:33.246Z,97932.00
2019-05-29T20:39:01.319Z,97932.00
2019-05-29T20:41:34.974Z,97928.66
2019-05-29T20:44:02.029Z,97931.95
2019-05-29T20:46:32.477Z,97927.63
2019-05-29T20:49:02.464Z,97931.27
2019-05-29T20:51:32.813Z,97936.23
2019-05-29T20:54:03.646Z,97936.04
2019-05-29T20:56:33.968Z,97941.02
2019-05-29T20:59:03.588Z,97937.17
2019-05-29T21:01:39.444Z,97947.45
2019-05-29T21:04:04.458Z,97952.58
2019-05-29T21:06:34.591Z,97953.06
2019-05-29T21:09:05.175Z,97954.05
2019-05-29T21:11:35.330Z,97954.89
2019-05-29T21:14:05.071Z,97960.20
2019-05-29T21:16:37.578Z,97962.78
2019-05-29T21:19:06.092Z,97962.78
2019-05-29T21:21:36.304Z,97964.39
2019-05-29T21:24:08.738Z,97967.89
2019-05-29T21:26:38.937Z,97969.22
2019-05-29T21:29:08.990Z,97966.22
2019-05-29T21:31:41.707Z,97972.02
2019-05-29T21:34:11.315Z,97970.49
2019-05-29T21:36:44.266Z,97970.14
2019-05-29T21:39:13.936Z,97970.78
2019-05-29T21:41:44.640Z,97978.75
2019-05-29T21:44:14.203Z,97972.60
2019-05-29T21:46:45.042Z,97969.11
2019-05-29T21:49:15.375Z,97976.73
2019-05-29T21:51:45.777Z,97979.39
2019-05-29T21:54:15.523Z,97977.72
2019-05-29T21:56:45.841Z,97974.02
2019-05-29T21:59:15.697Z,97985.62
2019-05-29T22:01:46.335Z,97976.33
2019-05-29T22:04:15.914Z,97982.97
2019-05-29T22:06:46.566Z,97982.28
2019-05-29T22:09:16.449Z,97975.48
2019-05-29T22:11:46.053Z,97978.27
2019-05-29T22:14:15.503Z,97984.62
2019-05-29T22:16:45.077Z,97985.74
2019-05-29T22:19:14.684Z,97987.22
2019-05-29T22:21:44.263Z,97986.17
2019-05-29T22:24:13.813Z,97978.55
2019-05-29T22:26:43.352Z,97987.50
2019-05-29T22:29:18.316Z,97980.66
2019-05-29T22:31:44.145Z,97988.77
2019-05-29T22:34:13.606Z,97990.45
2019-05-29T22:36:43.164Z,97995.76
2019-05-29T22:39:12.689Z,97991.08
2019-05-29T22:41:42.156Z,97999.68
2019-05-29T22:44:11.690Z,97999.68
2019-05-29T22:46:41.148Z,97999.68
2019-05-29T22:49:10.901Z,97998.15
2019-05-29T22:51:40.441Z,98000.95
2019-05-29T22:54:09.983Z,97997.80
2019-05-29T22:56:39.504Z,97994.80
2019-05-29T22:59:08.976Z,97996.27
2019-05-29T23:01:38.537Z,97991.44
2019-05-29T23:04:07.999Z,98002.56
2019-05-29T23:06:37.497Z,97993.89
2019-05-29T23:09:07.444Z,97994.38
2019-05-29T23:11:36.966Z,97992.64
2019-05-29T23:14:06.546Z,97993.48
2019-05-29T23:16:36.010Z,97995.16
2019-05-29T23:19:05.702Z,97996.48
2019-05-29T23:21:35.170Z,97995.78
2019-05-29T23:24:04.867Z,97990.75
2019-05-29T23:26:34.482Z,98000.89
2019-05-29T23:29:04.057Z,98000.69
2019-05-29T23:31:33.490Z,98004.81
2019-05-29T23:34:03.313Z,98001.38
2019-05-29T23:36:32.957Z,98003.83
2019-05-29T23:39:03.472Z,98002.30
2019-05-29T23:41:33.180Z,98002.92
2019-05-29T23:44:03.704Z,98003.06
2019-05-29T23:46:33.470Z,98005.02
2019-05-29T23:49:03.932Z,98004.53
2019-05-29T23:51:33.536Z,98001.17
2019-05-29T23:54:03.927Z,98000.12
2019-05-29T23:56:33.586Z,97996.14
2019-05-29T23:59:04.108Z,98000.62
